Time;durP1;ratioP1;P1;durP2;ratioP2;P2;SDS_P1;SDS_P2;PMS_P1;PMS_P2;Temp;Humidity;BMP_temperature;BMP_pressure;BME280_temperature;BME280_humidity;BME280_pressure;Samples;Min_cycle;Max_cycle;Signal;HPM_P1;HPM_P2
2023/11/02 00:02:23;;;;;;;7.87;6.50;;;12.00;1.00;;;;;;5152869;27;20461;-73
2023/11/02 00:04:51;;;;;;;6.03;5.43;;;11.90;1.00;;;;;;5137085;27;20474;-72
2023/11/02 00:07:19;;;;;;;6.33;5.70;;;11.90;1.00;;;;;;5131281;27;20454;-73
2023/11/02 00:09:48;;;;;;;5.20;4.70;;;11.90;1.00;;;;;;5126682;27;20534;-73
2023/11/02 00:12:18;;;;;;;5.57;5.07;;;11.90;1.00;;;;;;5145381;27;20968;-72
2023/11/02 00:14:47;;;;;;;5.20;4.70;;;11.90;1.00;;;;;;5135588;27;22790;-72
2023/11/02 00:17:45;;;;;;;5.33;4.83;;;11.80;1.00;;;;;;5130618;27;20873;-72
2023/11/02 00:20:33;;;;;;;5.30;4.67;;;11.90;1.00;;;;;;5123025;27;20478;-72
2023/11/02 00:23:00;;;;;;;4.97;4.57;;;11.90;1.00;;;;;;5127383;27;20444;-72
2023/11/02 00:25:52;;;;;;;8.37;5.37;;;11.80;1.00;;;;;;5148626;27;20560;-73
2023/11/02 00:28:19;;;;;;;5.37;4.87;;;11.80;1.00;;;;;;5128947;27;20980;-73
2023/11/02 00:30:48;;;;;;;6.50;4.93;;;11.80;1.00;;;;;;5129867;27;21046;-75
2023/11/02 00:33:16;;;;;;;6.40;4.57;;;11.80;1.00;;;;;;5146555;27;20556;-75
2023/11/02 00:35:49;;;;;;;6.57;4.37;;;11.80;1.00;;;;;;5124364;27;20477;-75
2023/11/02 00:38:21;;;;;;;5.10;4.30;;;11.80;1.00;;;;;;5123151;27;20531;-75
2023/11/02 00:40:50;;;;;;;6.07;4.30;;;11.60;1.00;;;;;;5129630;27;20974;-76
2023/11/02 00:43:19;;;;;;;6.13;5.30;;;11.60;1.00;;;;;;5130148;27;20450;-77
2023/11/02 00:45:46;;;;;;;4.93;4.47;;;11.70;1.00;;;;;;5139380;27;20461;-77
2023/11/02 00:48:18;;;;;;;4.80;4.30;;;11.60;1.00;;;;;;5146904;27;20548;-76
2023/11/02 00:51:26;;;;;;;5.10;4.23;;;11.60;1.00;;;;;;5129385;27;20477;-77
2023/11/02 00:53:55;;;;;;;3.90;3.50;;;11.50;1.00;;;;;;5127061;27;20491;-76
2023/11/02 00:56:27;;;;;;;4.27;3.87;;;11.50;1.00;;;;;;5127384;27;20911;-75
2023/11/02 00:58:55;;;;;;;4.30;3.90;;;11.50;1.00;;;;;;5143721;27;20532;-75
2023/11/02 01:01:24;;;;;;;4.80;3.47;;;11.50;1.00;;;;;;5139888;27;20484;-75
2023/11/02 01:03:53;;;;;;;5.90;3.80;;;11.40;1.00;;;;;;5136877;27;20464;-77
2023/11/02 01:06:22;;;;;;;4.47;4.07;;;11.40;1.00;;;;;;5147293;27;21129;-76
2023/11/02 01:08:57;;;;;;;4.13;3.20;;;11.40;1.00;;;;;;5132137;27;20456;-74
2023/11/02 01:11:33;;;;;;;4.83;3.10;;;11.50;1.00;;;;;;5131938;27;21666;-75
2023/11/02 01:14:13;;;;;;;4.87;3.00;;;11.50;1.00;;;;;;5134716;27;20927;-75
2023/11/02 01:16:40;;;;;;;3.30;3.00;;;11.50;1.00;;;;;;5130221;27;20465;-75
2023/11/02 01:19:29;;;;;;;4.03;2.60;;;11.50;1.00;;;;;;5123698;27;20460;-75
2023/11/02 01:21:56;;;;;;;4.33;2.90;;;11.50;1.00;;;;;;5130907;27;20480;-76
2023/11/02 01:24:25;;;;;;;4.60;2.97;;;11.40;1.00;;;;;;5132888;27;20947;-74
2023/11/02 01:27:03;;;;;;;4.57;3.10;;;11.40;1.00;;;;;;5132726;27;20654;-75
2023/11/02 01:29:30;;;;;;;5.43;3.73;;;11.40;1.00;;;;;;5147351;27;20440;-76
2023/11/02 01:31:57;;;;;;;3.30;3.00;;;11.50;1.00;;;;;;5148115;27;20842;-74
2023/11/02 01:34:24;;;;;;;3.93;2.63;;;11.50;1.00;;;;;;5132198;27;20485;-76
2023/11/02 01:36:56;;;;;;;3.20;2.83;;;11.60;1.00;;;;;;5131076;27;21256;-75
2023/11/02 01:39:53;;;;;;;3.70;3.40;;;11.60;1.00;;;;;;5123176;27;20457;-75
2023/11/02 01:42:28;;;;;;;4.80;3.57;;;11.70;1.00;;;;;;5138071;27;20460;-70
2023/11/02 01:45:05;;;;;;;4.80;3.40;;;11.50;1.00;;;;;;5154246;27;20464;-71
2023/11/02 01:47:53;;;;;;;4.23;3.17;;;11.50;1.00;;;;;;5134043;27;20476;-70
2023/11/02 01:50:28;;;;;;;3.70;2.97;;;11.60;1.00;;;;;;5146964;27;20448;-69
2023/11/02 01:53:18;;;;;;;4.77;2.47;;;11.60;1.00;;;;;;5149719;27;20505;-73
2023/11/02 01:55:59;;;;;;;6.00;2.67;;;11.60;1.00;;;;;;5141644;27;21239;-70
2023/11/02 01:58:34;;;;;;;3.73;3.37;;;11.60;1.00;;;;;;5133854;27;21065;-71
2023/11/02 02:01:10;;;;;;;5.07;2.97;;;11.60;1.00;;;;;;5138426;27;20528;-69
2023/11/02 02:03:49;;;;;;;5.07;3.13;;;11.60;1.00;;;;;;5125947;27;20528;-69
2023/11/02 02:06:23;;;;;;;3.57;3.20;;;11.60;1.00;;;;;;5147475;27;20559;-69
2023/11/02 02:09:01;;;;;;;4.27;3.93;;;11.60;1.00;;;;;;5150857;27;20596;-69
2023/11/02 02:11:42;;;;;;;3.20;2.90;;;11.50;1.00;;;;;;5136087;27;20964;-69
2023/11/02 02:14:19;;;;;;;4.17;3.63;;;11.50;1.00;;;;;;5133397;27;21364;-69
2023/11/02 02:16:51;;;;;;;5.43;3.40;;;11.50;1.00;;;;;;5129197;27;20944;-70
2023/11/02 02:19:44;;;;;;;4.33;3.50;;;11.40;1.00;;;;;;5133807;27;21074;-71
2023/11/02 02:22:16;;;;;;;3.30;3.00;;;11.40;1.00;;;;;;5131763;27;20537;-71
2023/11/02 02:24:49;;;;;;;4.40;3.50;;;11.40;1.00;;;;;;5141412;27;20500;-71
2023/11/02 02:27:55;;;;;;;4.77;3.10;;;11.40;1.00;;;;;;5136596;27;21129;-69
2023/11/02 02:30:56;;;;;;;5.10;3.00;;;11.30;1.00;;;;;;5134969;27;20539;-74
2023/11/02 02:33:53;;;;;;;4.33;3.00;;;11.30;1.00;;;;;;5127671;27;20486;-70
2023/11/02 02:36:32;;;;;;;5.57;3.10;;;11.20;1.00;;;;;;5144876;27;20460;-70
2023/11/02 02:39:06;;;;;;;4.03;2.90;;;11.20;1.00;;;;;;5129903;27;20463;-69
2023/11/02 02:41:39;;;;;;;6.03;3.40;;;11.20;1.00;;;;;;5130063;27;20511;-70
2023/11/02 02:44:09;;;;;;;5.57;3.33;;;11.20;1.00;;;;;;5144145;27;20444;-69
2023/11/02 02:46:38;;;;;;;4.30;2.80;;;11.20;1.00;;;;;;5149704;27;20830;-70
2023/11/02 02:49:05;;;;;;;6.03;3.10;;;11.20;1.00;;;;;;5151300;27;20480;-70
2023/11/02 02:51:36;;;;;;;3.90;3.33;;;11.10;1.00;;;;;;5142821;27;20470;-76
2023/11/02 02:54:07;;;;;;;5.07;2.80;;;11.10;1.00;;;;;;5136042;27;20995;-75
2023/11/02 02:56:36;;;;;;;5.83;3.30;;;11.00;1.00;;;;;;5127975;27;20467;-75
2023/11/02 02:59:07;;;;;;;7.30;2.70;;;11.00;1.00;;;;;;5132549;27;20494;-77
2023/11/02 03:01:38;;;;;;;4.93;2.80;;;10.90;1.00;;;;;;5145372;27;20543;-74
2023/11/02 03:04:10;;;;;;;3.90;3.13;;;10.80;1.00;;;;;;5151977;27;20444;-76
2023/11/02 03:06:44;;;;;;;3.17;2.87;;;10.70;1.00;;;;;;5141030;27;20475;-74
2023/11/02 03:09:14;;;;;;;3.70;2.90;;;10.60;1.00;;;;;;5152353;27;20459;-76
2023/11/02 03:11:44;;;;;;;3.97;3.10;;;10.60;1.00;;;;;;5143600;27;20555;-77
2023/11/02 03:14:13;;;;;;;3.70;2.47;;;10.60;1.00;;;;;;5149040;27;20452;-76
2023/11/02 03:16:42;;;;;;;4.53;3.13;;;10.50;1.00;;;;;;5140977;27;21045;-74
2023/11/02 03:19:09;;;;;;;6.20;3.10;;;10.40;1.00;;;;;;5146399;27;20510;-76
2023/11/02 03:21:36;;;;;;;3.10;2.80;;;10.30;1.00;;;;;;5128087;27;20472;-76
2023/11/02 03:24:15;;;;;;;5.17;2.80;;;10.30;1.00;;;;;;5139801;27;20453;-76
2023/11/02 03:26:55;;;;;;;3.40;3.10;;;10.20;1.00;;;;;;5128973;27;20537;-75
2023/11/02 03:29:32;;;;;;;3.03;2.73;;;10.20;1.00;;;;;;5137271;27;21032;-75
2023/11/02 03:32:11;;;;;;;2.93;2.57;;;10.20;1.00;;;;;;5103425;27;20466;-75
2023/11/02 03:34:45;;;;;;;3.30;2.30;;;10.20;1.00;;;;;;5135689;27;20456;-76
2023/11/02 03:37:19;;;;;;;3.33;3.07;;;10.20;1.00;;;;;;5148734;27;20443;-76
2023/11/02 03:40:27;;;;;;;5.30;3.10;;;10.10;1.00;;;;;;5148948;27;20543;-75
2023/11/02 03:43:03;;;;;;;6.43;2.80;;;10.10;1.00;;;;;;5150354;27;20441;-74
2023/11/02 03:45:49;;;;;;;2.80;2.60;;;10.00;1.00;;;;;;5151611;27;20452;-76
2023/11/02 03:48:27;;;;;;;2.93;2.60;;;10.00;1.00;;;;;;5127782;27;20477;-76
2023/11/02 03:51:08;;;;;;;4.37;3.47;;;10.00;1.00;;;;;;5130202;27;20901;-76
2023/11/02 03:53:45;;;;;;;4.03;2.50;;;10.00;1.00;;;;;;5149554;27;20464;-77
2023/11/02 03:56:23;;;;;;;3.90;3.20;;;9.90;1.00;;;;;;5150351;27;20543;-76
2023/11/02 03:58:59;;;;;;;4.50;2.90;;;9.90;1.00;;;;;;5129778;27;20465;-77
2023/11/02 04:01:32;;;;;;;8.70;3.17;;;9.90;1.00;;;;;;5128021;27;20537;-73
2023/11/02 04:04:04;;;;;;;4.47;3.00;;;9.90;1.00;;;;;;5126732;27;20536;-73
2023/11/02 04:06:42;;;;;;;3.10;2.67;;;9.80;1.00;;;;;;5127344;27;20518;-73
2023/11/02 04:09:15;;;;;;;4.70;2.80;;;9.80;1.00;;;;;;5136080;27;20454;-73
2023/11/02 04:11:59;;;;;;;5.40;2.57;;;9.80;1.00;;;;;;5137081;27;20453;-73
2023/11/02 04:14:27;;;;;;;4.60;3.07;;;9.80;1.00;;;;;;5133633;27;20472;-73
2023/11/02 04:16:54;;;;;;;4.03;2.57;;;9.80;1.00;;;;;;5129614;27;20543;-73
2023/11/02 04:19:22;;;;;;;4.93;2.70;;;9.80;1.00;;;;;;5143363;27;20460;-72
2023/11/02 04:21:50;;;;;;;3.03;2.73;;;9.70;1.00;;;;;;5146642;27;20860;-74
2023/11/02 04:24:17;;;;;;;3.57;2.50;;;9.60;1.00;;;;;;5149287;27;20482;-73
2023/11/02 04:26:45;;;;;;;3.20;2.90;;;9.60;1.00;;;;;;5147958;27;20471;-74
2023/11/02 04:29:12;;;;;;;4.73;2.37;;;9.50;1.00;;;;;;5144843;27;20460;-73
2023/11/02 04:31:40;;;;;;;3.77;2.20;;;9.50;1.00;;;;;;5142552;27;21296;-73
2023/11/02 04:34:07;;;;;;;3.80;3.10;;;9.60;1.00;;;;;;5147857;27;21218;-74
2023/11/02 04:36:34;;;;;;;3.40;2.90;;;9.50;1.00;;;;;;5148624;27;20547;-73
2023/11/02 04:39:00;;;;;;;4.07;2.80;;;9.50;1.00;;;;;;5146781;27;20811;-73
2023/11/02 04:41:28;;;;;;;3.80;3.00;;;9.50;1.00;;;;;;5125474;27;20449;-74
2023/11/02 04:43:56;;;;;;;4.70;2.83;;;9.40;1.00;;;;;;5149383;27;20967;-74
2023/11/02 04:46:23;;;;;;;16.20;3.23;;;9.40;1.00;;;;;;5140769;27;20666;-73
2023/11/02 04:48:50;;;;;;;4.83;3.17;;;9.50;1.00;;;;;;5122295;27;20555;-75
2023/11/02 04:51:17;;;;;;;3.40;2.63;;;9.50;1.00;;;;;;5146179;27;20471;-74
2023/11/02 04:53:43;;;;;;;4.23;2.53;;;9.50;1.00;;;;;;5127935;27;20556;-74
2023/11/02 04:56:10;;;;;;;7.17;3.87;;;9.50;1.00;;;;;;5127357;27;21262;-71
2023/11/02 04:58:38;;;;;;;7.70;3.60;;;9.40;1.00;;;;;;5144477;27;20459;-72
2023/11/02 05:01:10;;;;;;;3.60;2.77;;;9.40;1.00;;;;;;5124150;27;20535;-74
2023/11/02 05:03:37;;;;;;;6.10;3.17;;;9.40;1.00;;;;;;5123528;27;20537;-73
2023/11/02 05:06:04;;;;;;;5.80;2.80;;;9.50;1.00;;;;;;5139849;27;21055;-73
2023/11/02 05:08:31;;;;;;;6.93;2.70;;;9.50;1.00;;;;;;5130576;27;20560;-73
2023/11/02 05:10:58;;;;;;;2.63;2.40;;;9.50;1.00;;;;;;5135028;27;20479;-77
2023/11/02 05:13:25;;;;;;;5.93;2.97;;;9.40;1.00;;;;;;5149721;27;20471;-74
2023/11/02 05:15:52;;;;;;;5.50;2.87;;;9.40;1.00;;;;;;5127689;27;22527;-75
2023/11/02 05:18:20;;;;;;;2.93;2.40;;;9.40;1.00;;;;;;5125593;27;20457;-74
2023/11/02 05:20:47;;;;;;;8.60;5.70;;;9.40;1.00;;;;;;5143747;27;20443;-72
2023/11/02 05:23:14;;;;;;;4.90;3.10;;;9.40;1.00;;;;;;5128818;27;20520;-75
2023/11/02 05:25:41;;;;;;;6.17;3.10;;;9.30;1.00;;;;;;5146293;27;20497;-77
2023/11/02 05:28:08;;;;;;;5.30;2.70;;;9.30;1.00;;;;;;5145011;27;20488;-78
2023/11/02 05:30:39;;;;;;;3.47;2.70;;;9.30;1.00;;;;;;5134669;27;20509;-76
2023/11/02 05:33:06;;;;;;;3.77;3.30;;;9.40;1.00;;;;;;5149973;27;20924;-76
2023/11/02 05:35:34;;;;;;;5.17;3.40;;;9.40;1.00;;;;;;5148595;27;20452;-75
2023/11/02 05:38:01;;;;;;;4.37;3.97;;;9.40;1.00;;;;;;5139131;27;20469;-75
2023/11/02 05:40:28;;;;;;;6.60;3.17;;;9.40;1.00;;;;;;5137039;27;21679;-75
2023/11/02 05:42:55;;;;;;;5.73;3.73;;;9.40;1.00;;;;;;5148805;27;20474;-76
2023/11/02 05:45:22;;;;;;;8.97;3.87;;;9.40;1.00;;;;;;5133995;27;21088;-74
2023/11/02 05:47:49;;;;;;;7.67;6.53;;;9.40;1.00;;;;;;5143778;27;20456;-75
2023/11/02 05:50:17;;;;;;;7.03;4.33;;;9.30;1.00;;;;;;5144239;27;20483;-76
2023/11/02 05:52:45;;;;;;;4.00;3.10;;;9.30;1.00;;;;;;5150058;27;20468;-74
2023/11/02 05:55:12;;;;;;;6.77;3.00;;;9.30;1.00;;;;;;5145543;27;20472;-76
2023/11/02 05:57:42;;;;;;;5.33;2.93;;;9.30;1.00;;;;;;5153294;27;20551;-73
2023/11/02 06:00:10;;;;;;;3.70;3.13;;;9.30;1.00;;;;;;5138139;27;20480;-76
2023/11/02 06:02:37;;;;;;;6.13;3.80;;;9.30;1.00;;;;;;5131284;27;20453;-76
2023/11/02 06:05:05;;;;;;;4.30;3.70;;;9.30;1.00;;;;;;5132096;27;20445;-75
2023/11/02 06:07:32;;;;;;;6.03;4.60;;;9.30;1.00;;;;;;5132831;27;20458;-74
2023/11/02 06:10:01;;;;;;;4.00;3.20;;;9.30;1.00;;;;;;5154774;27;20519;-76
2023/11/02 06:12:29;;;;;;;4.93;3.30;;;9.30;1.00;;;;;;5152250;27;20505;-75
2023/11/02 06:14:56;;;;;;;5.03;3.33;;;9.30;1.00;;;;;;5143447;27;20452;-75
2023/11/02 06:17:23;;;;;;;6.10;4.07;;;9.30;1.00;;;;;;5140626;27;20446;-75
2023/11/02 06:19:50;;;;;;;9.73;6.53;;;9.20;1.00;;;;;;5128870;27;20585;-74
2023/11/02 06:22:18;;;;;;;6.73;3.00;;;9.20;1.00;;;;;;5127005;27;20563;-76
2023/11/02 06:24:49;;;;;;;7.40;3.60;;;9.30;1.00;;;;;;5126731;27;20461;-76
2023/11/02 06:27:17;;;;;;;3.37;3.07;;;9.30;1.00;;;;;;5124193;27;20564;-74
2023/11/02 06:29:44;;;;;;;4.40;3.57;;;9.30;1.00;;;;;;5126991;27;20620;-75
2023/11/02 06:32:11;;;;;;;7.03;4.30;;;9.30;1.00;;;;;;5126161;27;20475;-75
2023/11/02 06:34:39;;;;;;;4.80;3.57;;;9.40;1.00;;;;;;5123016;27;20533;-76
2023/11/02 06:37:08;;;;;;;5.30;3.10;;;9.40;1.00;;;;;;5128258;27;20968;-76
2023/11/02 06:39:43;;;;;;;4.73;2.97;;;9.40;1.00;;;;;;5127756;27;20879;-73
2023/11/02 06:42:10;;;;;;;4.40;3.07;;;9.50;1.00;;;;;;5141872;27;20476;-74
2023/11/02 06:44:43;;;;;;;5.07;2.90;;;9.50;1.00;;;;;;5150095;27;20521;-75
2023/11/02 06:47:10;;;;;;;57.13;45.40;;;9.50;1.00;;;;;;5149367;27;20448;-76
2023/11/02 06:49:37;;;;;;;6.73;4.70;;;9.50;1.00;;;;;;5148849;27;20463;-74
2023/11/02 06:52:05;;;;;;;6.33;3.67;;;9.50;1.00;;;;;;5144751;27;20463;-74
2023/11/02 06:54:32;;;;;;;3.40;2.97;;;9.60;1.00;;;;;;5151749;27;20452;-76
2023/11/02 06:56:59;;;;;;;6.40;3.60;;;9.60;1.00;;;;;;5145824;27;20520;-75
2023/11/02 06:59:26;;;;;;;4.90;3.10;;;9.60;1.00;;;;;;5153005;27;20589;-76
2023/11/02 07:01:55;;;;;;;5.80;3.60;;;9.80;1.00;;;;;;5146697;27;20528;-77
2023/11/02 07:04:22;;;;;;;5.50;3.80;;;9.80;1.00;;;;;;5146175;27;20513;-75
2023/11/02 07:06:49;;;;;;;6.17;3.20;;;9.80;1.00;;;;;;5149070;27;20548;-77
2023/11/02 07:09:17;;;;;;;6.83;4.20;;;9.80;1.00;;;;;;5147309;27;20456;-76
2023/11/02 07:11:44;;;;;;;3.97;3.40;;;9.90;1.00;;;;;;5150371;27;20496;-75
2023/11/02 07:14:11;;;;;;;5.90;3.47;;;9.90;1.00;;;;;;5150018;27;20456;-75
2023/11/02 07:16:38;;;;;;;4.07;3.10;;;9.90;1.00;;;;;;5150343;27;20960;-75
2023/11/02 07:19:06;;;;;;;3.67;3.17;;;10.00;1.00;;;;;;5149455;27;20444;-77
2023/11/02 07:21:33;;;;;;;8.60;4.30;;;10.10;1.00;;;;;;5138411;27;20526;-75
2023/11/02 07:24:02;;;;;;;3.70;3.07;;;10.20;1.00;;;;;;5139903;27;20532;-74
2023/11/02 07:26:28;;;;;;;6.40;2.80;;;10.20;1.00;;;;;;5136484;27;20567;-77
2023/11/02 07:28:57;;;;;;;5.57;3.70;;;10.30;1.00;;;;;;5138404;27;20494;-79
2023/11/02 07:31:24;;;;;;;6.73;3.80;;;10.40;1.00;;;;;;5129640;27;20548;-78
2023/11/02 07:33:50;;;;;;;5.33;3.80;;;10.50;1.00;;;;;;5122634;27;20818;-71
2023/11/02 07:36:19;;;;;;;3.87;3.10;;;10.60;1.00;;;;;;5123805;27;20473;-72
2023/11/02 07:38:46;;;;;;;4.90;3.10;;;10.80;1.00;;;;;;5126493;27;21228;-71
2023/11/02 07:41:14;;;;;;;3.53;3.23;;;10.90;1.00;;;;;;5127169;27;20465;-70
2023/11/02 07:43:42;;;;;;;4.60;3.50;;;10.90;1.00;;;;;;5146538;27;20471;-72
2023/11/02 07:46:09;;;;;;;4.10;3.40;;;11.00;1.00;;;;;;5144105;27;20457;-73
2023/11/02 07:48:37;;;;;;;3.80;2.70;;;11.00;1.00;;;;;;5143512;27;20551;-72
2023/11/02 07:51:05;;;;;;;4.20;3.20;;;11.10;1.00;;;;;;5124468;27;20460;-73
2023/11/02 07:53:33;;;;;;;3.30;2.70;;;11.10;1.00;;;;;;5130210;27;20448;-72
2023/11/02 07:56:01;;;;;;;3.07;2.77;;;11.20;1.00;;;;;;5127976;27;21096;-72
2023/11/02 07:58:27;;;;;;;8.50;3.73;;;11.30;1.00;;;;;;5130890;27;20460;-71
2023/11/02 08:00:54;;;;;;;3.30;3.07;;;11.30;1.00;;;;;;5128437;27;21746;-71
2023/11/02 08:03:21;;;;;;;8.03;3.40;;;11.30;1.00;;;;;;5131605;27;20992;-72
2023/11/02 08:05:48;;;;;;;4.17;3.63;;;11.40;1.00;;;;;;5130854;27;20483;-70
2023/11/02 08:08:15;;;;;;;7.27;4.20;;;11.40;1.00;;;;;;5134160;27;20469;-73
2023/11/02 08:10:46;;;;;;;3.13;2.80;;;11.60;1.00;;;;;;5128163;27;21296;-72
2023/11/02 08:13:13;;;;;;;5.53;2.70;;;11.60;1.00;;;;;;5133760;27;21258;-72
2023/11/02 08:15:41;;;;;;;3.50;2.63;;;11.60;1.00;;;;;;5129659;27;20465;-70
2023/11/02 08:18:08;;;;;;;3.40;3.10;;;11.70;1.00;;;;;;5144541;27;20547;-72
2023/11/02 08:20:37;;;;;;;9.17;3.30;;;11.90;1.00;;;;;;5123955;27;22124;-71
2023/11/02 08:23:04;;;;;;;3.90;3.23;;;12.00;1.00;;;;;;5127016;27;21023;-72
2023/11/02 08:25:32;;;;;;;3.90;3.50;;;12.10;1.00;;;;;;5124829;27;21038;-72
2023/11/02 08:28:01;;;;;;;3.47;3.17;;;12.20;1.00;;;;;;5121570;27;20457;-71
2023/11/02 08:30:29;;;;;;;4.87;2.90;;;12.20;1.00;;;;;;5119849;27;20541;-72
2023/11/02 08:32:56;;;;;;;3.13;2.33;;;12.30;1.00;;;;;;5128152;27;20463;-71
2023/11/02 08:35:23;;;;;;;4.03;2.50;;;12.40;1.00;;;;;;5148327;27;20506;-72
2023/11/02 08:37:50;;;;;;;3.23;2.77;;;12.60;1.00;;;;;;5144073;27;20584;-71
2023/11/02 08:40:20;;;;;;;3.93;3.10;;;12.60;1.00;;;;;;5123345;27;21051;-72
2023/11/02 08:42:48;;;;;;;6.20;3.17;;;12.50;1.00;;;;;;5137611;27;20459;-72
2023/11/02 08:45:17;;;;;;;12.70;8.83;;;12.70;1.00;;;;;;5142114;27;20457;-74
2023/11/02 08:47:44;;;;;;;6.60;3.40;;;12.90;1.00;;;;;;5148686;27;21775;-74
2023/11/02 08:50:13;;;;;;;3.60;2.50;;;12.90;1.00;;;;;;5135446;27;20556;-72
2023/11/02 08:52:40;;;;;;;4.70;2.60;;;12.90;1.00;;;;;;5139375;27;20526;-71
2023/11/02 08:55:08;;;;;;;4.57;2.93;;;12.90;1.00;;;;;;5125230;27;20454;-72
2023/11/02 08:57:36;;;;;;;5.03;2.83;;;13.00;1.00;;;;;;5123009;27;20459;-72
2023/11/02 09:00:05;;;;;;;2.90;2.50;;;13.00;1.00;;;;;;5125183;27;20467;-71
2023/11/02 09:02:34;;;;;;;4.27;2.57;;;13.00;1.00;;;;;;5130621;27;21192;-74
2023/11/02 09:05:01;;;;;;;4.93;2.87;;;12.90;1.00;;;;;;5128670;27;21317;-72
2023/11/02 09:07:30;;;;;;;3.97;2.30;;;12.90;1.00;;;;;;5126889;27;20533;-73
2023/11/02 09:09:58;;;;;;;7.30;2.80;;;12.80;1.00;;;;;;5148319;27;20477;-74
2023/11/02 09:12:25;;;;;;;2.97;2.73;;;12.90;1.00;;;;;;5150516;27;20466;-73
2023/11/02 09:14:53;;;;;;;4.93;2.97;;;12.90;1.00;;;;;;5142611;27;20551;-74
2023/11/02 09:17:20;;;;;;;4.70;3.13;;;13.00;1.00;;;;;;5132031;27;21214;-73
2023/11/02 09:19:48;;;;;;;2.67;2.07;;;13.10;1.00;;;;;;5141743;27;20476;-73
2023/11/02 09:22:15;;;;;;;4.87;2.93;;;13.20;1.00;;;;;;5151735;27;20454;-75
2023/11/02 09:24:44;;;;;;;7.30;3.40;;;13.30;1.00;;;;;;5153467;27;20519;-74
2023/11/02 09:27:11;;;;;;;7.27;3.00;;;13.40;1.00;;;;;;5128360;27;20479;-74
2023/11/02 09:29:39;;;;;;;2.80;2.53;;;13.40;1.00;;;;;;5132468;27;21056;-74
2023/11/02 09:32:07;;;;;;;5.73;2.50;;;13.40;1.00;;;;;;5122423;27;20457;-72
2023/11/02 09:34:38;;;;;;;4.47;2.30;;;13.60;1.00;;;;;;5144998;27;20460;-75
2023/11/02 09:37:06;;;;;;;4.33;2.30;;;13.50;1.00;;;;;;5135352;27;20471;-74
2023/11/02 09:39:33;;;;;;;3.13;2.07;;;13.40;1.00;;;;;;5154193;27;20603;-72
2023/11/02 09:42:02;;;;;;;9.13;6.50;;;13.40;1.00;;;;;;5144918;27;20597;-72
2023/11/02 09:44:30;;;;;;;4.80;2.33;;;13.40;1.00;;;;;;5131791;27;20994;-74
2023/11/02 09:46:57;;;;;;;2.60;2.40;;;13.50;1.00;;;;;;5131006;27;20499;-76
2023/11/02 09:49:25;;;;;;;3.07;2.30;;;13.80;1.00;;;;;;5129582;27;20571;-72
2023/11/02 09:51:52;;;;;;;3.27;2.40;;;14.20;1.00;;;;;;5128574;27;20543;-71
2023/11/02 09:54:21;;;;;;;5.20;2.53;;;14.40;1.00;;;;;;5132587;27;21404;-72
2023/11/02 09:56:48;;;;;;;2.57;2.07;;;14.50;1.00;;;;;;5129540;27;21024;-70
2023/11/02 09:59:16;;;;;;;2.13;1.93;;;14.60;1.00;;;;;;5130844;27;20564;-72
2023/11/02 10:01:43;;;;;;;4.20;2.00;;;14.70;1.00;;;;;;5139009;27;20508;-70
2023/11/02 10:04:11;;;;;;;3.10;1.60;;;14.90;1.00;;;;;;5141377;27;20513;-73
2023/11/02 10:06:38;;;;;;;3.20;2.07;;;15.00;1.00;;;;;;5151225;27;20552;-70
2023/11/02 10:09:05;;;;;;;3.23;2.33;;;15.10;1.00;;;;;;5141306;27;20463;-70
2023/11/02 10:11:36;;;;;;;4.80;1.70;;;15.30;1.00;;;;;;5130349;27;20463;-73
2023/11/02 10:14:04;;;;;;;2.27;2.07;;;15.50;1.00;;;;;;5146626;27;20516;-73
2023/11/02 10:16:31;;;;;;;2.00;1.63;;;15.60;1.00;;;;;;5144171;27;21176;-71
2023/11/02 10:18:58;;;;;;;2.20;2.00;;;15.60;1.00;;;;;;5142429;27;20610;-71
2023/11/02 10:21:25;;;;;;;3.27;1.93;;;15.60;1.00;;;;;;5128943;27;20441;-71
2023/11/02 10:23:55;;;;;;;3.83;2.43;;;15.70;1.00;;;;;;5126104;27;20587;-72
2023/11/02 10:26:23;;;;;;;3.63;2.27;;;15.50;1.00;;;;;;5128401;27;20510;-72
2023/11/02 10:28:54;;;;;;;2.53;2.33;;;15.40;1.00;;;;;;5128658;27;20502;-71
2023/11/02 10:31:23;;;;;;;2.00;1.80;;;15.40;1.00;;;;;;5129278;27;20468;-73
2023/11/02 10:33:51;;;;;;;2.27;1.83;;;15.20;1.00;;;;;;5127253;27;20464;-74
2023/11/02 10:36:20;;;;;;;2.67;2.30;;;15.20;1.00;;;;;;5129498;27;20441;-71
2023/11/02 10:38:49;;;;;;;2.53;2.07;;;15.30;1.00;;;;;;5142013;27;20464;-73
2023/11/02 10:41:19;;;;;;;5.63;2.00;;;15.50;1.00;;;;;;5136412;27;20854;-72
2023/11/02 10:43:46;;;;;;;2.10;1.90;;;15.50;1.00;;;;;;5130573;27;20501;-72
2023/11/02 10:46:16;;;;;;;2.87;2.00;;;15.30;1.00;;;;;;5152253;27;20540;-71
2023/11/02 10:48:44;;;;;;;4.57;2.03;;;15.30;1.00;;;;;;5145165;27;20510;-72
2023/11/02 10:51:16;;;;;;;2.60;1.80;;;15.30;1.00;;;;;;5137058;27;20531;-70
2023/11/02 10:53:54;;;;;;;3.47;2.07;;;15.30;1.00;;;;;;5130788;27;21252;-72
2023/11/02 10:56:24;;;;;;;3.00;2.07;;;15.20;1.00;;;;;;5143344;27;20522;-71
2023/11/02 10:58:52;;;;;;;2.53;2.03;;;15.10;1.00;;;;;;5140166;27;20989;-72
2023/11/02 11:01:23;;;;;;;2.60;1.97;;;15.10;1.00;;;;;;5135361;27;20517;-75
2023/11/02 11:03:52;;;;;;;5.93;2.10;;;15.10;1.00;;;;;;5142378;27;20480;-76
2023/11/02 11:06:23;;;;;;;2.67;1.50;;;15.20;1.00;;;;;;5131562;27;20467;-74
2023/11/02 11:08:51;;;;;;;2.80;1.67;;;15.20;1.00;;;;;;5125833;27;20987;-74
2023/11/02 11:11:20;;;;;;;2.40;1.73;;;15.10;1.00;;;;;;5137939;27;20550;-75
2023/11/02 11:13:48;;;;;;;5.17;1.80;;;15.10;1.00;;;;;;5129222;27;20534;-76
2023/11/02 11:16:16;;;;;;;3.37;2.30;;;15.10;1.00;;;;;;5127991;27;20457;-76
2023/11/02 11:18:44;;;;;;;3.00;2.13;;;15.00;1.00;;;;;;5130090;27;20541;-78
2023/11/02 11:21:12;;;;;;;1.93;1.73;;;15.00;1.00;;;;;;5143995;27;20560;-76
2023/11/02 11:23:44;;;;;;;3.47;1.77;;;14.90;1.00;;;;;;5140295;27;20548;-75
2023/11/02 11:26:12;;;;;;;5.60;2.87;;;14.90;1.00;;;;;;5131186;27;20498;-75
2023/11/02 11:28:39;;;;;;;2.17;1.90;;;15.10;1.00;;;;;;5130745;27;20755;-76
2023/11/02 11:31:09;;;;;;;3.90;2.07;;;15.10;1.00;;;;;;5139550;27;20493;-77
2023/11/02 11:33:51;;;;;;;3.10;2.43;;;15.00;1.00;;;;;;5140276;27;20912;-77
2023/11/02 11:36:25;;;;;;;2.30;2.10;;;14.90;1.00;;;;;;5150772;27;20466;-77
2023/11/02 11:38:53;;;;;;;5.00;4.50;;;14.90;1.00;;;;;;5140379;27;20482;-75
2023/11/02 11:41:47;;;;;;;2.10;1.67;;;14.90;1.00;;;;;;5127994;27;20449;-77
2023/11/02 11:44:21;;;;;;;4.23;3.17;;;14.70;1.00;;;;;;5078022;27;20456;-77
2023/11/02 11:46:51;;;;;;;3.57;1.90;;;14.70;1.00;;;;;;5123558;27;20554;-79
2023/11/02 11:49:51;;;;;;;2.20;2.00;;;14.70;1.00;;;;;;5126401;27;20476;-76
2023/11/02 11:52:28;;;;;;;2.40;1.87;;;14.70;1.00;;;;;;5126819;27;20457;-77
2023/11/02 11:54:55;;;;;;;11.00;5.17;;;14.80;1.00;;;;;;5135445;27;20908;-75
2023/11/02 11:57:54;;;;;;;3.03;2.43;;;14.70;1.00;;;;;;5142202;27;20456;-78
2023/11/02 12:00:24;;;;;;;2.40;2.20;;;14.80;1.00;;;;;;5094068;27;20452;-77
2023/11/02 12:02:55;;;;;;;2.70;2.10;;;14.80;1.00;;;;;;5132607;27;20452;-76
2023/11/02 12:05:57;;;;;;;3.10;1.80;;;15.00;1.00;;;;;;5143500;27;20479;-75
2023/11/02 12:08:25;;;;;;;2.60;1.90;;;14.90;1.00;;;;;;5144810;27;21309;-76
2023/11/02 12:10:57;;;;;;;2.67;2.00;;;14.80;1.00;;;;;;5126978;27;20512;-75
2023/11/02 12:13:25;;;;;;;2.40;1.87;;;14.90;1.00;;;;;;5128115;27;20540;-73
2023/11/02 12:15:54;;;;;;;3.13;2.10;;;15.00;1.00;;;;;;5121918;27;20468;-72
2023/11/02 12:18:28;;;;;;;1.80;1.60;;;15.10;1.00;;;;;;5130413;27;20451;-73
2023/11/02 12:20:57;;;;;;;2.13;1.97;;;15.00;1.00;;;;;;5127173;27;22228;-73
2023/11/02 12:23:37;;;;;;;2.47;1.90;;;15.10;1.00;;;;;;5132284;27;21063;-73
2023/11/02 12:26:06;;;;;;;2.27;1.93;;;15.00;1.00;;;;;;5130856;27;20456;-73
2023/11/02 12:28:43;;;;;;;3.33;2.17;;;15.00;1.00;;;;;;5146793;27;20885;-72
2023/11/02 12:31:11;;;;;;;2.30;2.00;;;15.00;1.00;;;;;;5125403;27;20535;-73
2023/11/02 12:33:39;;;;;;;3.20;2.10;;;14.90;1.00;;;;;;5127411;27;20841;-74
2023/11/02 12:36:09;;;;;;;3.80;2.30;;;14.90;1.00;;;;;;5125114;27;20887;-73
2023/11/02 12:38:37;;;;;;;2.73;2.40;;;14.80;1.00;;;;;;5129326;27;20914;-72
2023/11/02 12:41:05;;;;;;;5.27;2.47;;;14.80;1.00;;;;;;5126156;27;20924;-72
2023/11/02 12:43:36;;;;;;;4.60;2.50;;;14.80;1.00;;;;;;5130537;27;20547;-71
2023/11/02 12:46:06;;;;;;;2.70;2.13;;;14.90;1.00;;;;;;5131938;27;20457;-72
2023/11/02 12:48:36;;;;;;;2.70;2.20;;;14.90;1.00;;;;;;5149844;27;20464;-71
2023/11/02 12:51:22;;;;;;;2.60;2.40;;;14.90;1.00;;;;;;5134487;27;20484;-73
2023/11/02 12:53:51;;;;;;;2.67;2.37;;;14.80;1.00;;;;;;5134293;27;20460;-71
2023/11/02 12:56:25;;;;;;;2.90;2.43;;;14.70;1.00;;;;;;5146925;27;20576;-71
2023/11/02 12:58:59;;;;;;;3.67;3.37;;;14.70;1.00;;;;;;5128562;27;20475;-71
2023/11/02 13:01:45;;;;;;;3.70;3.00;;;14.80;1.00;;;;;;5146637;27;20470;-72
2023/11/02 13:04:15;;;;;;;3.13;2.57;;;14.80;1.00;;;;;;5151007;27;20462;-73
2023/11/02 13:06:43;;;;;;;3.77;2.57;;;14.80;1.00;;;;;;5151758;27;20512;-70
2023/11/02 13:09:13;;;;;;;4.90;3.17;;;14.80;1.00;;;;;;5151331;27;20472;-72
2023/11/02 13:11:43;;;;;;;8.63;3.83;;;14.80;1.00;;;;;;5130543;27;20850;-71
2023/11/02 13:14:12;;;;;;;3.20;2.70;;;14.80;1.00;;;;;;5132427;27;20544;-72
2023/11/02 13:16:39;;;;;;;2.70;2.50;;;14.80;1.00;;;;;;5129660;27;20461;-71
2023/11/02 13:19:07;;;;;;;3.70;3.40;;;14.70;1.00;;;;;;5131171;27;22270;-73
2023/11/02 13:21:34;;;;;;;3.73;2.80;;;14.70;1.00;;;;;;5140629;27;20476;-68